sensor_id;sensor_type;location;lat;lon;timestamp;pressure;altitude;pressure_sealevel;temperature;humidity
3524;BME280;1776;53.330;11.498;2024-02-23T00:01:05;22645.88;;;-147.39;75.26
3524;BME280;1776;53.330;11.498;2024-02-23T00:03:31;22771.91;;;-147.39;74.35
3524;BME280;1776;53.330;11.498;2024-02-23T00:05:58;22784.09;;;-147.39;76.13
3524;BME280;1776;53.330;11.498;2024-02-23T00:08:23;22873.53;;;-147.39;74.32
3524;BME280;1776;53.330;11.498;2024-02-23T00:10:48;22897.94;;;-147.39;74.14
3524;BME280;1776;53.330;11.498;2024-02-23T00:13:13;22936.56;;;-147.39;73.63
3524;BME280;1776;53.330;11.498;2024-02-23T00:15:39;22950.78;;;-147.39;73.33
3524;BME280;1776;53.330;11.498;2024-02-23T00:18:04;23030.06;;;-147.39;72.37
3524;BME280;1776;53.330;11.498;2024-02-23T00:20:29;23011.75;;;-147.39;72.72
3524;BME280;1776;53.330;11.498;2024-02-23T00:22:55;23070.72;;;-147.39;72.20
3524;BME280;1776;53.330;11.498;2024-02-23T00:25:20;23105.25;;;-147.39;71.95
3524;BME280;1776;53.330;11.498;2024-02-23T00:27:45;23095.09;;;-147.39;72.10
3524;BME280;1776;53.330;11.498;2024-02-23T00:30:13;23145.91;;;-147.39;71.32
3524;BME280;1776;53.330;11.498;2024-02-23T00:32:38;23117.47;;;-147.39;70.85
3524;BME280;1776;53.330;11.498;2024-02-23T00:35:03;23170.31;;;-147.39;70.30
3524;BME280;1776;53.330;11.498;2024-02-23T00:37:29;23186.56;;;-147.39;69.54
3524;BME280;1776;53.330;11.498;2024-02-23T00:39:54;23198.78;;;-147.39;69.30
3524;BME280;1776;53.330;11.498;2024-02-23T00:42:19;23206.91;;;-147.39;69.23
3524;BME280;1776;53.330;11.498;2024-02-23T00:44:46;23186.56;;;-147.39;70.47
3524;BME280;1776;53.330;11.498;2024-02-23T00:47:11;23215.03;;;-147.39;70.16
3524;BME280;1776;53.330;11.498;2024-02-23T00:49:37;23208.94;;;-147.39;71.02
3524;BME280;1776;53.330;11.498;2024-02-23T00:52:02;23202.84;;;-147.39;71.59
3524;BME280;1776;53.330;11.498;2024-02-23T00:54:27;23239.44;;;-147.39;70.42
3524;BME280;1776;53.330;11.498;2024-02-23T00:56:52;23233.34;;;-147.39;70.93
3524;BME280;1776;53.330;11.498;2024-02-23T00:59:18;23221.13;;;-147.39;70.98
3524;BME280;1776;53.330;11.498;2024-02-23T01:01:43;23243.50;;;-147.39;70.16
3524;BME280;1776;53.330;11.498;2024-02-23T01:04:08;23239.44;;;-147.39;70.69
3524;BME280;1776;53.330;11.498;2024-02-23T01:06:34;23227.22;;;-147.39;71.19
3524;BME280;1776;53.330;11.498;2024-02-23T01:08:59;23247.56;;;-147.39;69.79
3524;BME280;1776;53.330;11.498;2024-02-23T01:11:24;23243.50;;;-147.39;70.64
3524;BME280;1776;53.330;11.498;2024-02-23T01:13:49;23294.31;;;-147.39;68.72
3524;BME280;1776;53.330;11.498;2024-02-23T01:16:15;23328.88;;;-147.39;68.94
3524;BME280;1776;53.330;11.498;2024-02-23T01:18:41;23300.41;;;-147.39;68.83
3524;BME280;1776;53.330;11.498;2024-02-23T01:21:06;23334.97;;;-147.39;67.73
3524;BME280;1776;53.330;11.498;2024-02-23T01:23:32;23361.41;;;-147.39;68.62
3524;BME280;1776;53.330;11.498;2024-02-23T01:25:58;23353.28;;;-147.39;67.06
3524;BME280;1776;53.330;11.498;2024-02-23T01:28:24;23393.94;;;-147.39;67.88
3524;BME280;1776;53.330;11.498;2024-02-23T01:30:50;23324.81;;;-147.39;67.81
3524;BME280;1776;53.330;11.498;2024-02-23T01:33:15;23332.94;;;-147.39;68.88
3524;BME280;1776;53.330;11.498;2024-02-23T01:35:40;23363.44;;;-147.39;67.71
3524;BME280;1776;53.330;11.498;2024-02-23T01:38:06;23406.13;;;-147.39;67.33
3524;BME280;1776;53.330;11.498;2024-02-23T01:40:31;23426.44;;;-147.39;65.96
3524;BME280;1776;53.330;11.498;2024-02-23T01:43:06;23426.44;;;-147.39;65.88
3524;BME280;1776;53.330;11.498;2024-02-23T01:45:32;23414.25;;;-147.39;65.64
3524;BME280;1776;53.330;11.498;2024-02-23T01:47:59;23450.84;;;-147.39;65.24
3524;BME280;1776;53.330;11.498;2024-02-23T01:50:25;23463.03;;;-147.39;64.73
3524;BME280;1776;53.330;11.498;2024-02-23T01:52:51;23477.28;;;-147.39;63.99
3524;BME280;1776;53.330;11.498;2024-02-23T01:55:19;23507.78;;;-147.39;63.67
3524;BME280;1776;53.330;11.498;2024-02-23T01:57:45;23505.75;;;-147.39;63.44
3524;BME280;1776;53.330;11.498;2024-02-23T02:00:11;23456.94;;;-147.39;63.88
3524;BME280;1776;53.330;11.498;2024-02-23T02:02:40;23465.06;;;-147.39;63.55
3524;BME280;1776;53.330;11.498;2024-02-23T02:05:05;23497.59;;;-147.39;62.80
3524;BME280;1776;53.330;11.498;2024-02-23T02:07:32;23528.09;;;-147.39;61.19
3524;BME280;1776;53.330;11.498;2024-02-23T02:09:58;23583.00;;;-147.39;61.04
3524;BME280;1776;53.330;11.498;2024-02-23T02:12:29;23593.16;;;-147.39;60.57
3524;BME280;1776;53.330;11.498;2024-02-23T02:14:55;23576.88;;;-147.39;60.60
3524;BME280;1776;53.330;11.498;2024-02-23T02:17:21;23623.66;;;-147.39;59.89
3524;BME280;1776;53.330;11.498;2024-02-23T02:19:48;23627.72;;;-147.39;60.05
3524;BME280;1776;53.330;11.498;2024-02-23T02:22:13;23631.78;;;-147.39;59.02
3524;BME280;1776;53.330;11.498;2024-02-23T02:24:38;23650.09;;;-147.39;59.61
3524;BME280;1776;53.330;11.498;2024-02-23T02:27:06;23668.38;;;-147.39;58.94
3524;BME280;1776;53.330;11.498;2024-02-23T02:29:31;23666.34;;;-147.39;58.97
3524;BME280;1776;53.330;11.498;2024-02-23T02:31:57;23648.03;;;-147.39;59.51
3524;BME280;1776;53.330;11.498;2024-02-23T02:34:22;23672.44;;;-147.39;59.83
3524;BME280;1776;53.330;11.498;2024-02-23T02:36:47;23668.38;;;-147.39;60.12
3524;BME280;1776;53.330;11.498;2024-02-23T02:39:13;23684.63;;;-147.39;59.84
3524;BME280;1776;53.330;11.498;2024-02-23T02:41:38;23631.78;;;-147.39;60.81
3524;BME280;1776;53.330;11.498;2024-02-23T02:44:03;23690.75;;;-147.39;60.57
3524;BME280;1776;53.330;11.498;2024-02-23T02:46:28;23639.91;;;-147.39;60.79
3524;BME280;1776;53.330;11.498;2024-02-23T02:48:54;23680.56;;;-147.39;60.79
3524;BME280;1776;53.330;11.498;2024-02-23T02:51:19;23627.72;;;-147.39;61.25
3524;BME280;1776;53.330;11.498;2024-02-23T02:53:44;23652.13;;;-147.39;61.26
3524;BME280;1776;53.330;11.498;2024-02-23T02:56:09;23641.94;;;-147.39;61.56
3524;BME280;1776;53.330;11.498;2024-02-23T02:58:35;23585.03;;;-147.39;62.86
3524;BME280;1776;53.330;11.498;2024-02-23T03:01:00;23495.56;;;-147.39;69.52
3524;BME280;1776;53.330;11.498;2024-02-23T03:03:25;23206.91;;;-147.39;77.57
3524;BME280;1776;53.330;11.498;2024-02-23T03:05:50;22975.16;;;-147.39;82.98
3524;BME280;1776;53.330;11.498;2024-02-23T03:08:16;22861.34;;;-147.39;86.43
3524;BME280;1776;53.330;11.498;2024-02-23T03:10:41;22696.69;;;-147.39;88.19
3524;BME280;1776;53.330;11.498;2024-02-23T03:13:06;22627.59;;;-147.39;89.51
3524;BME280;1776;53.330;11.498;2024-02-23T03:15:32;22499.56;;;-147.39;90.22
3524;BME280;1776;53.330;11.498;2024-02-23T03:17:57;22499.56;;;-147.39;91.11
3524;BME280;1776;53.330;11.498;2024-02-23T03:20:22;22408.09;;;-147.39;91.56
3524;BME280;1776;53.330;11.498;2024-02-23T03:22:47;22383.72;;;-147.39;91.82
3524;BME280;1776;53.330;11.498;2024-02-23T03:25:13;22310.53;;;-147.39;92.87
3524;BME280;1776;53.330;11.498;2024-02-23T03:27:38;22206.91;;;-147.39;93.37
3524;BME280;1776;53.330;11.498;2024-02-23T03:30:04;22174.38;;;-147.39;93.92
3524;BME280;1776;53.330;11.498;2024-02-23T03:32:30;22105.28;;;-147.39;94.24
3524;BME280;1776;53.330;11.498;2024-02-23T03:35:01;22082.94;;;-147.39;94.66
3524;BME280;1776;53.330;11.498;2024-02-23T03:37:26;22093.09;;;-147.39;94.75
3524;BME280;1776;53.330;11.498;2024-02-23T03:39:52;22011.78;;;-147.39;94.96
3524;BME280;1776;53.330;11.498;2024-02-23T03:42:17;21851.25;;;-147.39;94.79
3524;BME280;1776;53.330;11.498;2024-02-23T03:44:42;21979.28;;;-147.39;94.92
3524;BME280;1776;53.330;11.498;2024-02-23T03:47:08;21956.94;;;-147.39;95.24
3524;BME280;1776;53.330;11.498;2024-02-23T03:49:33;21918.31;;;-147.39;94.97
3524;BME280;1776;53.330;11.498;2024-02-23T03:51:58;21934.56;;;-147.39;95.13
3524;BME280;1776;53.330;11.498;2024-02-23T03:54:23;21904.09;;;-147.39;95.05
3524;BME280;1776;53.330;11.498;2024-02-23T03:56:49;21912.22;;;-147.39;95.36
3524;BME280;1776;53.330;11.498;2024-02-23T03:59:14;21940.66;;;-147.39;95.36
3524;BME280;1776;53.330;11.498;2024-02-23T04:01:39;21887.84;;;-147.39;94.87
3524;BME280;1776;53.330;11.498;2024-02-23T04:04:05;21883.78;;;-147.39;94.66
3524;BME280;1776;53.330;11.498;2024-02-23T04:06:31;21916.28;;;-147.39;94.36
3524;BME280;1776;53.330;11.498;2024-02-23T04:08:56;21906.13;;;-147.39;94.51
3524;BME280;1776;53.330;11.498;2024-02-23T04:11:22;21914.25;;;-147.39;94.17
3524;BME280;1776;53.330;11.498;2024-02-23T04:13:47;21977.25;;;-147.39;94.06
3524;BME280;1776;53.330;11.498;2024-02-23T04:16:12;21918.31;;;-147.39;93.75
3524;BME280;1776;53.330;11.498;2024-02-23T04:18:38;21975.22;;;-147.39;93.26
3524;BME280;1776;53.330;11.498;2024-02-23T04:21:03;21963.03;;;-147.39;92.77
3524;BME280;1776;53.330;11.498;2024-02-23T04:23:28;21987.41;;;-147.39;92.64
3524;BME280;1776;53.330;11.498;2024-02-23T04:25:54;22003.66;;;-147.39;92.78
3524;BME280;1776;53.330;11.498;2024-02-23T04:28:19;21952.88;;;-147.39;92.70
3524;BME280;1776;53.330;11.498;2024-02-23T04:30:44;21991.47;;;-147.39;92.62
3524;BME280;1776;53.330;11.498;2024-02-23T04:33:10;21985.38;;;-147.39;92.73
3524;BME280;1776;53.330;11.498;2024-02-23T04:35:35;21950.84;;;-147.39;92.92
3524;BME280;1776;53.330;11.498;2024-02-23T04:38:01;21954.91;;;-147.39;93.07
3524;BME280;1776;53.330;11.498;2024-02-23T04:40:27;21934.56;;;-147.39;92.80
3524;BME280;1776;53.330;11.498;2024-02-23T04:42:52;21938.63;;;-147.39;93.29
3524;BME280;1776;53.330;11.498;2024-02-23T04:45:18;21938.63;;;-147.39;93.25
3524;BME280;1776;53.330;11.498;2024-02-23T04:47:43;21928.47;;;-147.39;92.96
3524;BME280;1776;53.330;11.498;2024-02-23T04:50:10;21926.44;;;-147.39;93.16
3524;BME280;1776;53.330;11.498;2024-02-23T04:52:35;21952.88;;;-147.39;93.19
3524;BME280;1776;53.330;11.498;2024-02-23T04:55:00;21936.59;;;-147.39;92.78
3524;BME280;1776;53.330;11.498;2024-02-23T04:57:26;21965.06;;;-147.39;92.95
3524;BME280;1776;53.330;11.498;2024-02-23T04:59:51;21958.97;;;-147.39;92.56
3524;BME280;1776;53.330;11.498;2024-02-23T05:02:17;21963.03;;;-147.39;92.55
3524;BME280;1776;53.330;11.498;2024-02-23T05:04:42;21989.44;;;-147.39;91.89
3524;BME280;1776;53.330;11.498;2024-02-23T05:07:07;21971.16;;;-147.39;92.31
3524;BME280;1776;53.330;11.498;2024-02-23T05:09:33;21967.09;;;-147.39;91.91
3524;BME280;1776;53.330;11.498;2024-02-23T05:12:00;22026.03;;;-147.39;91.57
3524;BME280;1776;53.330;11.498;2024-02-23T05:14:26;21979.28;;;-147.39;91.41
3524;BME280;1776;53.330;11.498;2024-02-23T05:16:51;22007.72;;;-147.39;91.50
3524;BME280;1776;53.330;11.498;2024-02-23T05:19:17;22093.09;;;-147.39;90.36
3524;BME280;1776;53.330;11.498;2024-02-23T05:21:42;22058.53;;;-147.39;90.32
3524;BME280;1776;53.330;11.498;2024-02-23T05:24:07;22042.28;;;-147.39;89.64
3524;BME280;1776;53.330;11.498;2024-02-23T05:26:32;22119.50;;;-147.39;89.57
3524;BME280;1776;53.330;11.498;2024-02-23T05:28:58;22129.66;;;-147.39;89.60
3524;BME280;1776;53.330;11.498;2024-02-23T05:31:44;22091.06;;;-147.39;89.29
3524;BME280;1776;53.330;11.498;2024-02-23T05:34:10;22156.09;;;-147.39;89.04
3524;BME280;1776;53.330;11.498;2024-02-23T05:36:35;22121.53;;;-147.39;89.15
3524;BME280;1776;53.330;11.498;2024-02-23T05:39:00;22162.19;;;-147.39;88.56
3524;BME280;1776;53.330;11.498;2024-02-23T05:41:26;22139.81;;;-147.39;88.15
3524;BME280;1776;53.330;11.498;2024-02-23T05:43:51;22188.59;;;-147.39;88.14
3524;BME280;1776;53.330;11.498;2024-02-23T05:46:16;22180.47;;;-147.39;88.23
3524;BME280;1776;53.330;11.498;2024-02-23T05:48:43;22182.50;;;-147.39;88.19
3524;BME280;1776;53.330;11.498;2024-02-23T05:51:08;22198.75;;;-147.39;87.42
3524;BME280;1776;53.330;11.498;2024-02-23T05:53:33;22200.78;;;-147.39;87.13
3524;BME280;1776;53.330;11.498;2024-02-23T05:55:59;22259.72;;;-147.39;86.70
3524;BME280;1776;53.330;11.498;2024-02-23T05:58:24;22221.13;;;-147.39;86.80
3524;BME280;1776;53.330;11.498;2024-02-23T06:00:50;22213.00;;;-147.39;86.71
3524;BME280;1776;53.330;11.498;2024-02-23T06:03:16;22265.81;;;-147.39;86.09
3524;BME280;1776;53.330;11.498;2024-02-23T06:05:43;22221.13;;;-147.39;85.90
3524;BME280;1776;53.330;11.498;2024-02-23T06:08:08;22273.97;;;-147.39;85.61
3524;BME280;1776;53.330;11.498;2024-02-23T06:10:34;22302.41;;;-147.39;85.21
3524;BME280;1776;53.330;11.498;2024-02-23T06:12:59;22298.34;;;-147.39;85.12
3524;BME280;1776;53.330;11.498;2024-02-23T06:15:24;22316.63;;;-147.39;84.46
3524;BME280;1776;53.330;11.498;2024-02-23T06:17:49;22361.34;;;-147.39;83.89
3524;BME280;1776;53.330;11.498;2024-02-23T06:20:15;22334.94;;;-147.39;83.99
3524;BME280;1776;53.330;11.498;2024-02-23T06:22:40;22379.63;;;-147.39;83.13
3524;BME280;1776;53.330;11.498;2024-02-23T06:25:05;22373.53;;;-147.39;83.65
3524;BME280;1776;53.330;11.498;2024-02-23T06:27:31;22371.50;;;-147.39;83.58
3524;BME280;1776;53.330;11.498;2024-02-23T06:29:56;22438.56;;;-147.39;82.94
3524;BME280;1776;53.330;11.498;2024-02-23T06:32:22;22412.16;;;-147.39;82.37
3524;BME280;1776;53.330;11.498;2024-02-23T06:34:47;22450.78;;;-147.39;82.10
3524;BME280;1776;53.330;11.498;2024-02-23T06:37:12;22501.59;;;-147.39;81.54
3524;BME280;1776;53.330;11.498;2024-02-23T06:39:38;22467.03;;;-147.39;81.14
3524;BME280;1776;53.330;11.498;2024-02-23T06:42:04;22454.84;;;-147.39;80.53
3524;BME280;1776;53.330;11.498;2024-02-23T06:44:30;22462.97;;;-147.39;80.83
3524;BME280;1776;53.330;11.498;2024-02-23T06:46:55;22493.47;;;-147.39;80.81
3524;BME280;1776;53.330;11.498;2024-02-23T06:49:20;22525.97;;;-147.39;81.12
3524;BME280;1776;53.330;11.498;2024-02-23T06:51:46;22542.22;;;-147.39;81.58
3524;BME280;1776;53.330;11.498;2024-02-23T06:54:11;22477.19;;;-147.39;80.93
3524;BME280;1776;53.330;11.498;2024-02-23T06:56:36;22475.16;;;-147.39;80.90
3524;BME280;1776;53.330;11.498;2024-02-23T06:59:02;22544.25;;;-147.39;80.64
3524;BME280;1776;53.330;11.498;2024-02-23T07:01:27;22523.94;;;-147.39;80.38
3524;BME280;1776;53.330;11.498;2024-02-23T07:03:53;22519.88;;;-147.39;80.56
3524;BME280;1776;53.330;11.498;2024-02-23T07:06:18;22538.16;;;-147.39;80.00
3524;BME280;1776;53.330;11.498;2024-02-23T07:08:44;22568.66;;;-147.39;79.64
3524;BME280;1776;53.330;11.498;2024-02-23T07:11:10;22576.78;;;-147.39;78.99
3524;BME280;1776;53.330;11.498;2024-02-23T07:13:35;22601.19;;;-147.39;78.51
3524;BME280;1776;53.330;11.498;2024-02-23T07:16:00;22621.50;;;-147.39;78.21
3524;BME280;1776;53.330;11.498;2024-02-23T07:18:26;22629.63;;;-147.39;78.09
3524;BME280;1776;53.330;11.498;2024-02-23T07:20:51;22670.28;;;-147.39;77.29
3524;BME280;1776;53.330;11.498;2024-02-23T07:23:16;22690.59;;;-147.39;77.41
3524;BME280;1776;53.330;11.498;2024-02-23T07:25:42;22684.50;;;-147.39;77.15
3524;BME280;1776;53.330;11.498;2024-02-23T07:28:07;22694.66;;;-147.39;76.49
3524;BME280;1776;53.330;11.498;2024-02-23T07:30:33;22747.50;;;-147.39;76.65
3524;BME280;1776;53.330;11.498;2024-02-23T07:33:00;22717.03;;;-147.39;76.72
3524;BME280;1776;53.330;11.498;2024-02-23T07:35:25;22692.63;;;-147.39;77.70
3524;BME280;1776;53.330;11.498;2024-02-23T07:37:50;22753.63;;;-147.39;76.65
3524;BME280;1776;53.330;11.498;2024-02-23T07:40:16;22767.84;;;-147.39;77.44
3524;BME280;1776;53.330;11.498;2024-02-23T07:42:41;22773.94;;;-147.39;77.28
3524;BME280;1776;53.330;11.498;2024-02-23T07:45:07;22761.75;;;-147.39;76.24
3524;BME280;1776;53.330;11.498;2024-02-23T07:47:32;22745.47;;;-147.39;76.63
3524;BME280;1776;53.330;11.498;2024-02-23T07:49:58;22796.31;;;-147.39;75.63
3524;BME280;1776;53.330;11.498;2024-02-23T07:52:23;22845.09;;;-147.39;75.04
3524;BME280;1776;53.330;11.498;2024-02-23T07:54:49;22830.84;;;-147.39;74.95
3524;BME280;1776;53.330;11.498;2024-02-23T07:57:17;22897.94;;;-147.39;73.14
3524;BME280;1776;53.330;11.498;2024-02-23T07:59:42;22910.13;;;-147.39;73.88
3524;BME280;1776;53.330;11.498;2024-02-23T08:02:07;22924.34;;;-147.39;72.82
3524;BME280;1776;53.330;11.498;2024-02-23T08:04:33;22952.81;;;-147.39;72.80
3524;BME280;1776;53.330;11.498;2024-02-23T08:06:58;22962.97;;;-147.39;72.38
3524;BME280;1776;53.330;11.498;2024-02-23T08:09:24;23042.25;;;-147.39;70.72
3524;BME280;1776;53.330;11.498;2024-02-23T08:11:49;23304.47;;;-147.39;64.93
3524;BME280;1776;53.330;11.498;2024-02-23T08:14:14;23656.19;;;-147.39;59.28
3524;BME280;1776;53.330;11.498;2024-02-23T08:16:40;24117.72;;;-147.39;53.15
3524;BME280;1776;53.330;11.498;2024-02-23T08:19:05;24530.47;;;-147.39;45.88
3524;BME280;1776;53.330;11.498;2024-02-23T08:21:30;24392.22;;;-147.39;47.65
3524;BME280;1776;53.330;11.498;2024-02-23T08:23:56;24556.91;;;-147.39;45.18
3524;BME280;1776;53.330;11.498;2024-02-23T08:26:22;24538.63;;;-147.39;45.52
3524;BME280;1776;53.330;11.498;2024-02-23T08:28:47;24654.53;;;-147.39;44.53
3524;BME280;1776;53.330;11.498;2024-02-23T08:31:12;24752.13;;;-147.39;42.36
3524;BME280;1776;53.330;11.498;2024-02-23T08:33:37;25081.59;;;-147.39;40.70
3524;BME280;1776;53.330;11.498;2024-02-23T08:36:03;25114.13;;;-147.39;41.20
3524;BME280;1776;53.330;11.498;2024-02-23T08:38:31;24986.00;;;-147.39;42.63
3524;BME280;1776;53.330;11.498;2024-02-23T08:40:56;25175.16;;;-147.39;40.89
3524;BME280;1776;53.330;11.498;2024-02-23T08:43:21;25097.88;;;-147.39;41.74
3524;BME280;1776;53.330;11.498;2024-02-23T08:45:46;25053.13;;;-147.39;41.96
3524;BME280;1776;53.330;11.498;2024-02-23T08:48:12;25154.81;;;-147.39;41.23
3524;BME280;1776;53.330;11.498;2024-02-23T08:50:40;25339.91;;;-147.39;40.40
3524;BME280;1776;53.330;11.498;2024-02-23T08:53:05;24969.75;;;-147.39;43.16
3524;BME280;1776;53.330;11.498;2024-02-23T08:55:30;24756.22;;;-147.39;47.41
3524;BME280;1776;53.330;11.498;2024-02-23T08:57:58;24711.47;;;-147.39;49.18
3524;BME280;1776;53.330;11.498;2024-02-23T09:00:23;24827.38;;;-147.39;46.65
3524;BME280;1776;53.330;11.498;2024-02-23T09:02:49;24951.44;;;-147.39;45.35
3524;BME280;1776;53.330;11.498;2024-02-23T09:05:15;24902.63;;;-147.39;46.65
3524;BME280;1776;53.330;11.498;2024-02-23T09:07:40;24886.38;;;-147.39;47.84
3524;BME280;1776;53.330;11.498;2024-02-23T09:10:06;24933.13;;;-147.39;45.30
3524;BME280;1776;53.330;11.498;2024-02-23T09:12:31;24807.03;;;-147.39;46.60
3524;BME280;1776;53.330;11.498;2024-02-23T09:14:57;24748.06;;;-147.39;47.31
3524;BME280;1776;53.330;11.498;2024-02-23T09:17:22;24770.44;;;-147.39;48.32
3524;BME280;1776;53.330;11.498;2024-02-23T09:19:48;24687.06;;;-147.39;49.39
3524;BME280;1776;53.330;11.498;2024-02-23T09:22:13;24666.72;;;-147.39;49.97
3524;BME280;1776;53.330;11.498;2024-02-23T09:24:40;24668.75;;;-147.39;49.71
3524;BME280;1776;53.330;11.498;2024-02-23T09:27:05;24752.13;;;-147.39;48.04
3524;BME280;1776;53.330;11.498;2024-02-23T09:29:32;24748.06;;;-147.39;48.67
3524;BME280;1776;53.330;11.498;2024-02-23T09:31:57;24733.84;;;-147.39;46.90
3524;BME280;1776;53.330;11.498;2024-02-23T09:34:23;24762.31;;;-147.39;46.32
3524;BME280;1776;53.330;11.498;2024-02-23T09:36:49;24683.00;;;-147.39;48.40
3524;BME280;1776;53.330;11.498;2024-02-23T09:39:14;24573.19;;;-147.39;50.55
3524;BME280;1776;53.330;11.498;2024-02-23T09:41:39;24534.56;;;-147.39;52.05
3524;BME280;1776;53.330;11.498;2024-02-23T09:44:06;24497.94;;;-147.39;52.98
3524;BME280;1776;53.330;11.498;2024-02-23T09:46:36;24571.16;;;-147.39;50.56
3524;BME280;1776;53.330;11.498;2024-02-23T09:49:02;24556.91;;;-147.39;51.22
3524;BME280;1776;53.330;11.498;2024-02-23T09:51:29;24447.13;;;-147.39;51.84
3524;BME280;1776;53.330;11.498;2024-02-23T09:53:54;24493.88;;;-147.39;52.09
3524;BME280;1776;53.330;11.498;2024-02-23T09:56:21;24469.47;;;-147.39;49.80
3524;BME280;1776;53.330;11.498;2024-02-23T09:58:50;24638.25;;;-147.39;49.85
3524;BME280;1776;53.330;11.498;2024-02-23T10:01:24;24766.38;;;-147.39;46.30
3524;BME280;1776;53.330;11.498;2024-02-23T10:03:52;24815.19;;;-147.39;46.94
3524;BME280;1776;53.330;11.498;2024-02-23T10:06:19;24866.03;;;-147.39;45.53
3524;BME280;1776;53.330;11.498;2024-02-23T10:08:45;24861.97;;;-147.39;45.30
3524;BME280;1776;53.330;11.498;2024-02-23T10:11:10;24748.06;;;-147.39;46.73
3524;BME280;1776;53.330;11.498;2024-02-23T10:13:36;24713.50;;;-147.39;48.89
3524;BME280;1776;53.330;11.498;2024-02-23T10:16:01;24583.34;;;-147.39;49.86
3524;BME280;1776;53.330;11.498;2024-02-23T10:18:27;24599.63;;;-147.39;48.49
3524;BME280;1776;53.330;11.498;2024-02-23T10:20:52;24656.56;;;-147.39;47.95
3524;BME280;1776;53.330;11.498;2024-02-23T10:23:18;24725.69;;;-147.39;46.73
3524;BME280;1776;53.330;11.498;2024-02-23T10:25:45;24725.69;;;-147.39;47.61
3524;BME280;1776;53.330;11.498;2024-02-23T10:28:10;24703.34;;;-147.39;47.52
3524;BME280;1776;53.330;11.498;2024-02-23T10:30:36;24719.59;;;-147.39;47.65
3524;BME280;1776;53.330;11.498;2024-02-23T10:33:05;24699.28;;;-147.39;47.47
3524;BME280;1776;53.330;11.498;2024-02-23T10:35:31;24729.78;;;-147.39;47.34
3524;BME280;1776;53.330;11.498;2024-02-23T10:37:57;24699.28;;;-147.39;46.68
3524;BME280;1776;53.330;11.498;2024-02-23T10:40:24;24654.53;;;-147.39;47.38
3524;BME280;1776;53.330;11.498;2024-02-23T10:42:56;24691.13;;;-147.39;47.82
3524;BME280;1776;53.330;11.498;2024-02-23T10:45:22;24731.81;;;-147.39;47.96
3524;BME280;1776;53.330;11.498;2024-02-23T10:47:48;24805.00;;;-147.39;46.13
3524;BME280;1776;53.330;11.498;2024-02-23T10:50:14;24772.47;;;-147.39;45.77
3524;BME280;1776;53.330;11.498;2024-02-23T10:52:41;24768.41;;;-147.39;45.47
3524;BME280;1776;53.330;11.498;2024-02-23T10:55:08;24829.41;;;-147.39;46.75
3524;BME280;1776;53.330;11.498;2024-02-23T10:57:34;24776.53;;;-147.39;45.66
3524;BME280;1776;53.330;11.498;2024-02-23T11:00:00;24792.81;;;-147.39;45.45
3524;BME280;1776;53.330;11.498;2024-02-23T11:02:27;24784.69;;;-147.39;45.58
3524;BME280;1776;53.330;11.498;2024-02-23T11:04:55;24758.25;;;-147.39;45.85
3524;BME280;1776;53.330;11.498;2024-02-23T11:07:22;24723.66;;;-147.39;45.76
3524;BME280;1776;53.330;11.498;2024-02-23T11:09:54;24748.06;;;-147.39;45.30
3524;BME280;1776;53.330;11.498;2024-02-23T11:12:24;24825.34;;;-147.39;44.83
3524;BME280;1776;53.330;11.498;2024-02-23T11:14:49;24764.34;;;-147.39;44.87
3524;BME280;1776;53.330;11.498;2024-02-23T11:17:19;24821.28;;;-147.39;44.76
3524;BME280;1776;53.330;11.498;2024-02-23T11:19:46;24778.56;;;-147.39;44.62
3524;BME280;1776;53.330;11.498;2024-02-23T11:22:12;24764.34;;;-147.39;45.31
3524;BME280;1776;53.330;11.498;2024-02-23T11:24:42;24772.47;;;-147.39;45.21
3524;BME280;1776;53.330;11.498;2024-02-23T11:27:14;24849.75;;;-147.39;44.59
3524;BME280;1776;53.330;11.498;2024-02-23T11:29:39;24896.53;;;-147.39;44.17
3524;BME280;1776;53.330;11.498;2024-02-23T11:32:18;24880.25;;;-147.39;43.39
3524;BME280;1776;53.330;11.498;2024-02-23T11:35:03;24872.13;;;-147.39;43.31
3524;BME280;1776;53.330;11.498;2024-02-23T11:37:30;24902.63;;;-147.39;44.03
3524;BME280;1776;53.330;11.498;2024-02-23T11:39:56;24920.94;;;-147.39;43.85
3524;BME280;1776;53.330;11.498;2024-02-23T11:42:23;24929.06;;;-147.39;42.43
3524;BME280;1776;53.330;11.498;2024-02-23T11:44:50;24898.56;;;-147.39;42.02
3524;BME280;1776;53.330;11.498;2024-02-23T11:47:15;24945.34;;;-147.39;42.52
3524;BME280;1776;53.330;11.498;2024-02-23T11:49:42;24992.13;;;-147.39;43.06
3524;BME280;1776;53.330;11.498;2024-02-23T11:52:07;24890.44;;;-147.39;43.14
3524;BME280;1776;53.330;11.498;2024-02-23T11:54:32;24916.88;;;-147.39;43.01
3524;BME280;1776;53.330;11.498;2024-02-23T11:56:58;24951.44;;;-147.39;41.96
3524;BME280;1776;53.330;11.498;2024-02-23T11:59:25;24959.56;;;-147.39;42.60
3524;BME280;1776;53.330;11.498;2024-02-23T12:01:51;24908.72;;;-147.39;42.52
3524;BME280;1776;53.330;11.498;2024-02-23T12:04:17;24890.44;;;-147.39;43.42
3524;BME280;1776;53.330;11.498;2024-02-23T12:06:42;24904.66;;;-147.39;42.54
3524;BME280;1776;53.330;11.498;2024-02-23T12:09:08;24971.78;;;-147.39;41.83
3524;BME280;1776;53.330;11.498;2024-02-23T12:11:34;24920.94;;;-147.39;42.42
3524;BME280;1776;53.330;11.498;2024-02-23T12:14:00;24898.56;;;-147.39;42.83
3524;BME280;1776;53.330;11.498;2024-02-23T12:16:27;24898.56;;;-147.39;43.14
3524;BME280;1776;53.330;11.498;2024-02-23T12:18:53;24939.25;;;-147.39;42.09
3524;BME280;1776;53.330;11.498;2024-02-23T12:21:20;24931.09;;;-147.39;42.39
3524;BME280;1776;53.330;11.498;2024-02-23T12:23:48;25000.25;;;-147.39;42.09
3524;BME280;1776;53.330;11.498;2024-02-23T12:26:15;24931.09;;;-147.39;42.01
3524;BME280;1776;53.330;11.498;2024-02-23T12:28:41;25018.56;;;-147.39;41.89
3524;BME280;1776;53.330;11.498;2024-02-23T12:31:07;24937.19;;;-147.39;42.60
3524;BME280;1776;53.330;11.498;2024-02-23T12:33:34;24941.28;;;-147.39;42.43
3524;BME280;1776;53.330;11.498;2024-02-23T12:36:01;24947.38;;;-147.39;42.14
3524;BME280;1776;53.330;11.498;2024-02-23T12:38:27;24910.75;;;-147.39;41.89
3524;BME280;1776;53.330;11.498;2024-02-23T12:40:52;24922.97;;;-147.39;41.96
3524;BME280;1776;53.330;11.498;2024-02-23T12:43:18;24904.66;;;-147.39;43.05